GVSV

São Pedro Airport

São Pedro, Cape Verde
METAR GVSV 161000Z 06020G31KT 9000 FEW018 BKN200 24/14 Q1018 NOSIG
Observed Flight Rules
Dec-16 @ 10:00 UTC (an hour ago) Visual Flight Rules
Wind Visibility Clouds
60° at 20 knots
 Gusting to 31 knots
8,996 meters
  • Few at 1,800' AGL
  • Broken at 20,000' AGL
Temperatures Readings
Current 24°C / 75°F
Dewpoint 14°C / 57°F
Humidity 54%
Altimeter 30.06" Hg
Pressure 1018 hPa
Elevation 20
METAR GVSV 161000Z 06020G31KT 9000 FEW018 BKN200 24/14 Q1018 NOSIG
Observed Flight Rules
Dec-16 @ 10:00 UTC
(an hour ago)
VFR
Wind Visibility
60° at 20 knots
 Gusting to 31 knots
8,996 meters
Clouds
  • Few at 1,800' AGL
  • Broken at 20,000' AGL
Temperature Dewpoint
24°C / 75°F 14°C / 57°F
Humidity Altimeter Pressure
54% 30.06" Hg 1018 hPa